createdAt,value
2023-02-12T00:01:41.593Z,101541.35
2023-02-12T00:04:09.871Z,101536.91
2023-02-12T00:06:39.323Z,101536.09
2023-02-12T00:09:07.653Z,101527.71
2023-02-12T00:11:36.138Z,101530.55
2023-02-12T00:14:05.882Z,101536.34
2023-02-12T00:16:34.427Z,101539.84
2023-02-12T00:19:03.013Z,101538.80
2023-02-12T00:21:31.389Z,101529.27
2023-02-12T00:23:59.872Z,101515.79
2023-02-12T00:26:28.152Z,101517.30
2023-02-12T00:28:56.648Z,101518.06
2023-02-12T00:31:30.387Z,101514.92
2023-02-12T00:34:00.349Z,101517.05
2023-02-12T00:36:30.833Z,101512.86
2023-02-12T00:38:59.365Z,101520.61
2023-02-12T00:41:28.150Z,101531.15
2023-02-12T00:43:56.853Z,101533.20
2023-02-12T00:46:25.283Z,101529.44
2023-02-12T00:48:53.594Z,101526.92
2023-02-12T00:51:24.074Z,101516.80
2023-02-12T00:53:52.918Z,101506.48
2023-02-12T00:56:21.436Z,101500.16
2023-02-12T00:58:51.109Z,101495.47
2023-02-12T01:01:19.763Z,101493.38
2023-02-12T01:03:48.176Z,101491.90
2023-02-12T01:06:16.459Z,101492.80
2023-02-12T01:08:44.831Z,101492.02
2023-02-12T01:11:14.443Z,101490.06
2023-02-12T01:13:42.815Z,101484.32
2023-02-12T01:16:16.686Z,101474.39
2023-02-12T01:18:45.720Z,101474.95
2023-02-12T01:21:23.621Z,101472.05
2023-02-12T01:23:51.799Z,101462.32
2023-02-12T01:26:21.788Z,101465.66
2023-02-12T01:28:55.465Z,101461.21
2023-02-12T01:31:26.840Z,101457.13
2023-02-12T01:33:57.484Z,101454.89
2023-02-12T01:36:27.105Z,101455.31
2023-02-12T01:38:56.340Z,101459.52
2023-02-12T01:41:31.587Z,101461.70
2023-02-12T01:44:24.522Z,101458.66
2023-02-12T01:46:59.230Z,101462.40
2023-02-12T01:49:40.855Z,101466.38
2023-02-12T01:52:16.365Z,101463.03
2023-02-12T01:54:44.849Z,101461.82
2023-02-12T01:57:14.761Z,101465.98
2023-02-12T01:59:45.584Z,101467.63
2023-02-12T02:02:14.487Z,101469.77
2023-02-12T02:04:50.757Z,101477.29
2023-02-12T02:07:19.236Z,101487.70
2023-02-12T02:09:48.024Z,101497.48
2023-02-12T02:12:35.551Z,101497.93
2023-02-12T02:15:06.491Z,101509.42
2023-02-12T02:17:53.537Z,101509.17
2023-02-12T02:20:45.844Z,101513.63
2023-02-12T02:23:23.335Z,101521.14
2023-02-12T02:25:54.458Z,101529.34
2023-02-12T02:28:31.576Z,101536.69
2023-02-12T02:31:10.096Z,101533.25
2023-02-12T02:34:22.797Z,101527.94
2023-02-12T02:37:08.736Z,101528.13
2023-02-12T02:40:12.307Z,101523.88
2023-02-12T02:42:48.956Z,101520.38
2023-02-12T02:45:43.133Z,101521.86
2023-02-12T02:48:17.573Z,101530.34
2023-02-12T02:50:51.842Z,101530.22
2023-02-12T02:53:45.445Z,101536.75
2023-02-12T02:56:18.036Z,101536.80
2023-02-12T02:59:04.956Z,101542.27
2023-02-12T03:01:55.170Z,101548.52
2023-02-12T03:04:44.212Z,101544.91
2023-02-12T03:07:26.511Z,101540.46
2023-02-12T03:10:01.807Z,101540.77
2023-02-12T03:12:43.956Z,101541.87
2023-02-12T03:15:23.085Z,101547.90
2023-02-12T03:17:51.757Z,101548.72
2023-02-12T03:20:24.862Z,101554.15
2023-02-12T03:22:58.648Z,101560.19
2023-02-12T03:25:42.722Z,101561.45
2023-02-12T03:28:17.560Z,101567.63
2023-02-12T03:31:01.440Z,101570.86
2023-02-12T03:33:53.127Z,101578.00
2023-02-12T03:36:34.636Z,101582.28
2023-02-12T03:39:33.601Z,101583.52
2023-02-12T03:42:14.678Z,101582.98
2023-02-12T03:44:53.102Z,101581.24
2023-02-12T03:47:27.985Z,101584.40
2023-02-12T03:50:03.604Z,101579.09
2023-02-12T03:52:31.956Z,101578.95
2023-02-12T03:55:00.582Z,101579.42
2023-02-12T03:57:35.358Z,101577.80
2023-02-12T04:00:08.012Z,101583.23
2023-02-12T04:02:43.590Z,101587.13
2023-02-12T04:05:20.404Z,101588.11
2023-02-12T04:07:50.178Z,101584.00
2023-02-12T04:10:21.425Z,101588.02
2023-02-12T04:12:54.655Z,101593.48
2023-02-12T04:15:54.376Z,101598.14
2023-02-12T04:18:41.445Z,101594.77
2023-02-12T04:21:44.975Z,101599.30
2023-02-12T04:24:23.671Z,101598.87
2023-02-12T04:27:05.059Z,101599.60
2023-02-12T04:30:04.263Z,101604.79
2023-02-12T04:32:46.971Z,101611.00
2023-02-12T04:35:24.568Z,101609.41
2023-02-12T04:38:15.279Z,101612.48
2023-02-12T04:40:44.470Z,101620.52
2023-02-12T04:43:12.954Z,101618.00
2023-02-12T04:45:41.375Z,101615.98
2023-02-12T04:48:10.837Z,101624.64
2023-02-12T04:50:42.406Z,101626.70
2023-02-12T04:53:11.698Z,101625.57
2023-02-12T04:55:39.883Z,101631.66
2023-02-12T04:58:08.450Z,101631.88
2023-02-12T05:00:36.944Z,101643.34
2023-02-12T05:03:05.111Z,101644.68
2023-02-12T05:05:33.496Z,101641.70
2023-02-12T05:08:01.764Z,101645.51
2023-02-12T05:10:29.940Z,101647.16
2023-02-12T05:12:58.322Z,101647.25
2023-02-12T05:15:26.856Z,101643.87
2023-02-12T05:17:55.278Z,101644.98
2023-02-12T05:20:23.664Z,101648.39
2023-02-12T05:22:53.778Z,101653.85
2023-02-12T05:25:22.165Z,101659.55
2023-02-12T05:27:50.538Z,101662.59
2023-02-12T05:30:18.914Z,101664.57
2023-02-12T05:32:47.091Z,101674.16
2023-02-12T05:35:15.471Z,101682.59
2023-02-12T05:37:43.846Z,101688.45
2023-02-12T05:40:12.942Z,101691.77
2023-02-12T05:42:41.323Z,101692.81
2023-02-12T05:45:10.114Z,101698.51
2023-02-12T05:47:38.392Z,101690.05
2023-02-12T05:50:07.687Z,101699.19
2023-02-12T05:52:35.759Z,101699.73
2023-02-12T05:55:04.489Z,101703.27
2023-02-12T05:57:32.720Z,101710.04
2023-02-12T06:00:01.113Z,101710.55
2023-02-12T06:02:40.773Z,101722.58
2023-02-12T06:05:09.434Z,101725.89
2023-02-12T06:07:37.923Z,101727.44
2023-02-12T06:10:07.108Z,101730.17
2023-02-12T06:12:35.387Z,101730.38
2023-02-12T06:15:04.280Z,101728.54
2023-02-12T06:17:34.291Z,101732.91
2023-02-12T06:20:03.117Z,101737.36
2023-02-12T06:22:31.565Z,101737.22
2023-02-12T06:24:59.817Z,101735.36
2023-02-12T06:27:28.832Z,101737.81
2023-02-12T06:29:57.008Z,101738.90
2023-02-12T06:32:25.800Z,101738.49
2023-02-12T06:34:54.078Z,101744.98
2023-02-12T06:37:22.166Z,101744.36
2023-02-12T06:39:51.075Z,101747.25
2023-02-12T06:42:20.036Z,101746.60
2023-02-12T06:44:48.685Z,101747.89
2023-02-12T06:47:18.126Z,101753.30
2023-02-12T06:49:46.502Z,101755.66
2023-02-12T06:52:14.987Z,101758.16
2023-02-12T06:54:43.398Z,101752.91
2023-02-12T06:57:11.847Z,101753.05
2023-02-12T06:59:40.063Z,101752.33
2023-02-12T07:02:10.586Z,101751.98
2023-02-12T07:04:39.543Z,101756.35
2023-02-12T07:07:08.029Z,101760.14
2023-02-12T07:09:36.306Z,101766.19
2023-02-12T07:12:04.688Z,101765.26
2023-02-12T07:14:33.273Z,101772.23
2023-02-12T07:17:03.995Z,101773.98
2023-02-12T07:19:32.276Z,101777.48
2023-02-12T07:22:00.755Z,101779.94
2023-02-12T07:24:30.137Z,101779.95
2023-02-12T07:26:58.438Z,101780.61
2023-02-12T07:29:26.609Z,101784.91
2023-02-12T07:31:55.211Z,101788.01
2023-02-12T07:34:23.778Z,101788.75
2023-02-12T07:36:52.057Z,101795.71
2023-02-12T07:39:20.230Z,101799.22
2023-02-12T07:41:48.406Z,101801.77
2023-02-12T07:44:16.987Z,101808.29
2023-02-12T07:46:48.587Z,101812.15
2023-02-12T07:49:19.788Z,101816.30
2023-02-12T07:51:49.883Z,101814.36
2023-02-12T07:54:18.492Z,101816.73
2023-02-12T07:56:47.527Z,101823.68
2023-02-12T07:59:19.328Z,101821.85
2023-02-12T08:01:52.385Z,101819.94
2023-02-12T08:04:24.641Z,101819.66
2023-02-12T08:06:55.345Z,101825.81
2023-02-12T08:09:31.023Z,101826.34
2023-02-12T08:11:59.619Z,101829.33
2023-02-12T08:14:29.065Z,101824.17
2023-02-12T08:16:57.514Z,101822.69
2023-02-12T08:19:26.881Z,101826.27
2023-02-12T08:21:56.780Z,101828.08
2023-02-12T08:24:25.474Z,101829.35
2023-02-12T08:26:54.145Z,101829.75
2023-02-12T08:29:25.881Z,101831.05
2023-02-12T08:31:59.894Z,101837.42
2023-02-12T08:34:32.259Z,101839.85
2023-02-12T08:37:01.366Z,101839.93
2023-02-12T08:39:30.388Z,101840.74
2023-02-12T08:42:00.416Z,101848.58
2023-02-12T08:44:29.390Z,101852.94
2023-02-12T08:46:57.682Z,101860.45
2023-02-12T08:49:29.968Z,101862.78
2023-02-12T08:52:00.052Z,101868.10
2023-02-12T08:54:30.739Z,101871.27
2023-02-12T08:57:01.609Z,101877.09
2023-02-12T08:59:30.518Z,101882.48
2023-02-12T09:01:58.615Z,101887.04
2023-02-12T09:04:28.405Z,101889.29
2023-02-12T09:06:56.586Z,101890.41
2023-02-12T09:09:24.750Z,101894.18
2023-02-12T09:11:53.127Z,101893.43
2023-02-12T09:14:25.149Z,101903.49
2023-02-12T09:16:55.368Z,101908.97
2023-02-12T09:19:26.353Z,101912.48
2023-02-12T09:21:56.966Z,101919.55
2023-02-12T09:24:27.983Z,101923.09
2023-02-12T09:26:57.341Z,101924.85
2023-02-12T09:29:25.614Z,101923.77
2023-02-12T09:31:54.236Z,101929.73
2023-02-12T09:34:22.669Z,101931.45
2023-02-12T09:36:51.159Z,101932.30
2023-02-12T09:39:19.844Z,101933.03
2023-02-12T09:41:56.517Z,101931.23
2023-02-12T09:44:42.913Z,101926.10
2023-02-12T09:47:15.682Z,101931.81
2023-02-12T09:49:55.860Z,101937.41
2023-02-12T09:52:28.029Z,101940.67
2023-02-12T09:54:57.116Z,101937.39
2023-02-12T09:57:33.642Z,101935.59
2023-02-12T10:00:14.992Z,101937.33
2023-02-12T10:02:43.558Z,101936.02
2023-02-12T10:05:19.024Z,101936.36
2023-02-12T10:08:20.627Z,101941.63
2023-02-12T10:11:01.130Z,101945.23
2023-02-12T10:14:03.195Z,101953.32
2023-02-12T10:16:43.564Z,101952.30
2023-02-12T10:19:24.222Z,101951.14
2023-02-12T10:22:07.837Z,101955.77
2023-02-12T10:24:49.678Z,101957.05
2023-02-12T10:27:32.581Z,101953.60
2023-02-12T10:30:04.031Z,101947.55
2023-02-12T10:32:35.853Z,101945.64
2023-02-12T10:35:13.841Z,101948.52
2023-02-12T10:37:58.559Z,101945.77
2023-02-12T10:40:32.790Z,101949.88
2023-02-12T10:43:03.144Z,101951.10
2023-02-12T10:45:34.960Z,101949.91
2023-02-12T10:48:13.872Z,101956.61
2023-02-12T10:51:00.374Z,101959.05
2023-02-12T10:53:35.005Z,101963.56
2023-02-12T10:56:13.519Z,101958.44
2023-02-12T10:58:51.223Z,101960.40
2023-02-12T11:01:28.771Z,101959.33
2023-02-12T11:03:58.852Z,101965.58
2023-02-12T11:06:31.312Z,101968.77
2023-02-12T11:09:00.711Z,101971.91
2023-02-12T11:11:31.386Z,101973.50
2023-02-12T11:14:07.233Z,101973.72
2023-02-12T11:16:51.193Z,101974.44
2023-02-12T11:19:24.634Z,101973.44
2023-02-12T11:22:03.662Z,101973.08
2023-02-12T11:24:33.682Z,101977.44
2023-02-12T11:27:14.044Z,101981.89
2023-02-12T11:29:48.884Z,101979.89
2023-02-12T11:32:18.333Z,101980.95
2023-02-12T11:35:05.093Z,101978.42
2023-02-12T11:37:38.586Z,101974.74
2023-02-12T11:40:07.813Z,101978.98
2023-02-12T11:42:38.013Z,101981.61
2023-02-12T11:45:06.288Z,101982.33
2023-02-12T11:47:36.143Z,101986.98
2023-02-12T11:50:24.593Z,101988.60
2023-02-12T11:52:54.569Z,101989.48
2023-02-12T11:55:25.012Z,101988.69
2023-02-12T11:57:54.819Z,101984.23
2023-02-12T12:00:28.816Z,101984.98
2023-02-12T12:03:11.354Z,101979.52
2023-02-12T12:05:44.728Z,101976.54
2023-02-12T12:08:17.421Z,101978.86
2023-02-12T12:10:50.132Z,101980.08
2023-02-12T12:13:25.088Z,101987.98
2023-02-12T12:16:19.292Z,101983.27
2023-02-12T12:19:08.266Z,101981.97
2023-02-12T12:21:39.509Z,101980.92
2023-02-12T12:24:11.269Z,101984.33
2023-02-12T12:26:41.082Z,101990.20
2023-02-12T12:29:20.324Z,101989.70
2023-02-12T12:31:51.498Z,101983.67
2023-02-12T12:34:22.602Z,101979.27
2023-02-12T12:36:51.873Z,101989.07
2023-02-12T12:39:29.201Z,101996.50
2023-02-12T12:42:16.208Z,101998.36
2023-02-12T12:44:48.008Z,102002.17
2023-02-12T12:47:19.123Z,102001.10
2023-02-12T12:50:00.608Z,101995.38
2023-02-12T12:52:58.364Z,101996.95
2023-02-12T12:55:43.031Z,102005.48
2023-02-12T12:58:21.760Z,102013.60
2023-02-12T13:00:59.209Z,102016.31
2023-02-12T13:03:34.086Z,102016.92
2023-02-12T13:06:18.324Z,102020.39
2023-02-12T13:09:05.245Z,102017.70
2023-02-12T13:11:39.966Z,102020.27
2023-02-12T13:14:31.086Z,102017.31
2023-02-12T13:17:19.641Z,102029.84
2023-02-12T13:19:47.803Z,102030.71
2023-02-12T13:22:28.212Z,102028.73
2023-02-12T13:25:05.973Z,102031.45
2023-02-12T13:27:40.695Z,102034.60
2023-02-12T13:30:15.742Z,102039.36
2023-02-12T13:32:49.847Z,102040.67
2023-02-12T13:35:22.530Z,102033.90
2023-02-12T13:37:54.655Z,102040.03
2023-02-12T13:40:24.710Z,102047.84
2023-02-12T13:43:05.374Z,102048.90
2023-02-12T13:45:33.447Z,102049.33
2023-02-12T13:48:04.714Z,102047.61
2023-02-12T13:50:51.000Z,102051.34
2023-02-12T13:53:25.008Z,102050.45
2023-02-12T13:56:02.337Z,102058.54
2023-02-12T13:58:31.500Z,102060.70
2023-02-12T14:01:01.277Z,102063.67
2023-02-12T14:03:31.156Z,102057.09
2023-02-12T14:06:25.214Z,102063.48
2023-02-12T14:09:07.719Z,102074.35
2023-02-12T14:11:47.553Z,102071.79
2023-02-12T14:14:25.048Z,102077.55
2023-02-12T14:16:53.120Z,102080.27
2023-02-12T14:19:37.999Z,102079.70
2023-02-12T14:22:35.348Z,102084.15
2023-02-12T14:25:22.460Z,102085.89
2023-02-12T14:27:56.778Z,102080.77
2023-02-12T14:30:31.728Z,102086.33
2023-02-12T14:33:09.917Z,102090.22
2023-02-12T14:35:38.305Z,102088.54
2023-02-12T14:38:10.213Z,102089.52
2023-02-12T14:40:44.521Z,102094.29
2023-02-12T14:43:27.091Z,102094.05
2023-02-12T14:45:56.178Z,102104.35
2023-02-12T14:48:43.308Z,102114.59
2023-02-12T14:51:18.001Z,102115.49
2023-02-12T14:53:47.746Z,102115.77
2023-02-12T14:56:21.034Z,102121.20
2023-02-12T14:58:50.643Z,102123.83
2023-02-12T15:01:25.812Z,102125.77
2023-02-12T15:03:55.498Z,102136.63
2023-02-12T15:06:37.246Z,102139.14
2023-02-12T15:09:26.963Z,102145.41
2023-02-12T15:12:13.822Z,102158.05
2023-02-12T15:14:45.225Z,102159.74
2023-02-12T15:17:21.080Z,102164.02
2023-02-12T15:19:59.937Z,102174.20
2023-02-12T15:22:39.244Z,102183.77
2023-02-12T15:25:16.944Z,102193.48
2023-02-12T15:27:46.807Z,102199.61
2023-02-12T15:30:25.879Z,102197.24
2023-02-12T15:32:56.795Z,102204.60
2023-02-12T15:35:29.685Z,102210.87
2023-02-12T15:38:01.272Z,102217.35
2023-02-12T15:40:31.082Z,102217.48
2023-02-12T15:43:00.777Z,102224.90
2023-02-12T15:45:40.119Z,102230.13
2023-02-12T15:48:18.148Z,102240.42
2023-02-12T15:50:46.092Z,102248.36
2023-02-12T15:53:14.597Z,102252.92
2023-02-12T15:55:44.593Z,102261.55
2023-02-12T15:58:21.880Z,102269.11
2023-02-12T16:00:50.367Z,102276.46
2023-02-12T16:03:24.987Z,102282.90
2023-02-12T16:05:54.743Z,102290.95
2023-02-12T16:08:24.342Z,102292.83
2023-02-12T16:10:53.399Z,102295.34
2023-02-12T16:13:27.457Z,102298.48
2023-02-12T16:16:07.213Z,102309.68
2023-02-12T16:18:35.640Z,102312.27
2023-02-12T16:21:07.728Z,102317.11
2023-02-12T16:23:36.414Z,102323.80
2023-02-12T16:26:04.874Z,102330.64
2023-02-12T16:28:32.967Z,102339.64
2023-02-12T16:31:10.052Z,102342.27
2023-02-12T16:33:41.136Z,102344.23
2023-02-12T16:36:16.968Z,102353.44
2023-02-12T16:38:48.724Z,102360.74
2023-02-12T16:41:20.506Z,102363.69
2023-02-12T16:43:51.307Z,102368.08
2023-02-12T16:46:19.875Z,102370.59
2023-02-12T16:48:49.502Z,102377.41
2023-02-12T16:51:22.564Z,102381.78
2023-02-12T16:53:54.105Z,102382.77
2023-02-12T16:56:22.701Z,102386.11
2023-02-12T16:58:52.887Z,102386.29
2023-02-12T17:01:23.264Z,102391.45
2023-02-12T17:03:51.841Z,102385.53
2023-02-12T17:06:21.036Z,102392.67
2023-02-12T17:08:50.352Z,102394.52
2023-02-12T17:11:19.040Z,102394.30
2023-02-12T17:13:48.641Z,102395.84
2023-02-12T17:16:29.829Z,102402.48
2023-02-12T17:19:00.468Z,102407.45
2023-02-12T17:21:38.217Z,102405.83
2023-02-12T17:24:20.167Z,102408.52
2023-02-12T17:26:50.881Z,102417.62
2023-02-12T17:29:19.970Z,102427.80
2023-02-12T17:31:56.227Z,102431.22
2023-02-12T17:34:25.120Z,102436.98
2023-02-12T17:36:53.729Z,102441.14
2023-02-12T17:39:22.142Z,102446.02
2023-02-12T17:41:51.897Z,102453.96
2023-02-12T17:44:19.974Z,102465.49
2023-02-12T17:46:48.363Z,102471.52
2023-02-12T17:49:16.628Z,102475.78
2023-02-12T17:51:45.011Z,102478.39
2023-02-12T17:54:17.493Z,102483.69
2023-02-12T17:56:45.867Z,102490.64
2023-02-12T17:59:15.058Z,102493.73
2023-02-12T18:01:43.630Z,102499.12
2023-02-12T18:04:12.131Z,102499.48
2023-02-12T18:06:42.549Z,102499.40
2023-02-12T18:09:11.039Z,102505.63
2023-02-12T18:11:40.543Z,102508.93
2023-02-12T18:14:10.450Z,102512.33
2023-02-12T18:16:38.568Z,102512.61
2023-02-12T18:19:07.313Z,102523.14
2023-02-12T18:21:35.505Z,102528.98
2023-02-12T18:24:04.293Z,102523.57
2023-02-12T18:26:33.068Z,102527.86
2023-02-12T18:29:01.238Z,102529.30
2023-02-12T18:31:30.363Z,102530.30
2023-02-12T18:33:58.918Z,102533.11
2023-02-12T18:36:27.094Z,102532.90
2023-02-12T18:38:55.474Z,102537.94
2023-02-12T18:41:24.890Z,102543.64
2023-02-12T18:43:53.871Z,102546.91
2023-02-12T18:46:25.430Z,102545.96
2023-02-12T18:48:54.220Z,102553.95
2023-02-12T18:51:24.107Z,102560.98
2023-02-12T18:53:56.718Z,102564.75
2023-02-12T18:56:24.989Z,102563.03
2023-02-12T18:58:57.250Z,102562.79
2023-02-12T19:01:26.340Z,102568.63
2023-02-12T19:03:55.851Z,102575.61
2023-02-12T19:06:24.245Z,102574.88
2023-02-12T19:08:56.609Z,102578.12
2023-02-12T19:11:25.191Z,102582.52
2023-02-12T19:13:53.977Z,102584.00
2023-02-12T19:16:24.009Z,102586.20
2023-02-12T19:18:55.234Z,102590.45
2023-02-12T19:21:26.473Z,102589.52
2023-02-12T19:23:56.026Z,102591.77
2023-02-12T19:26:24.692Z,102593.05
2023-02-12T19:28:53.258Z,102598.96
2023-02-12T19:31:24.205Z,102600.26
2023-02-12T19:33:57.594Z,102599.77
2023-02-12T19:36:26.920Z,102596.96
2023-02-12T19:38:55.691Z,102593.69
2023-02-12T19:41:25.622Z,102599.46
2023-02-12T19:43:56.024Z,102599.27
2023-02-12T19:46:25.349Z,102597.81
2023-02-12T19:48:57.824Z,102592.73
2023-02-12T19:51:26.494Z,102590.89
2023-02-12T19:53:56.425Z,102594.16
2023-02-12T19:56:24.686Z,102595.41
2023-02-12T19:58:52.967Z,102594.10
2023-02-12T20:01:21.375Z,102593.86
2023-02-12T20:03:50.239Z,102598.20
2023-02-12T20:06:20.001Z,102601.30
2023-02-12T20:08:48.832Z,102602.65
2023-02-12T20:11:19.404Z,102606.56
2023-02-12T20:13:48.184Z,102607.27
2023-02-12T20:16:18.067Z,102608.83
2023-02-12T20:18:48.904Z,102612.52
2023-02-12T20:21:18.922Z,102615.86
2023-02-12T20:23:47.095Z,102616.94
2023-02-12T20:26:16.396Z,102613.64
2023-02-12T20:28:44.570Z,102614.34
2023-02-12T20:31:15.016Z,102620.67
2023-02-12T20:33:43.690Z,102620.70
2023-02-12T20:36:12.985Z,102620.63
2023-02-12T20:38:42.183Z,102623.26
2023-02-12T20:41:10.762Z,102626.32
2023-02-12T20:43:39.866Z,102619.95
2023-02-12T20:46:09.082Z,102626.30
2023-02-12T20:48:37.539Z,102627.44
2023-02-12T20:51:09.972Z,102629.39
2023-02-12T20:53:38.609Z,102628.22
2023-02-12T20:56:11.096Z,102632.05
2023-02-12T20:58:40.602Z,102631.95
2023-02-12T21:01:10.228Z,102633.30
2023-02-12T21:03:38.327Z,102639.30
2023-02-12T21:06:06.836Z,102641.55
2023-02-12T21:08:38.714Z,102642.79
2023-02-12T21:11:14.814Z,102638.00
2023-02-12T21:13:58.608Z,102638.49
2023-02-12T21:16:32.159Z,102637.54
2023-02-12T21:19:00.689Z,102640.10
2023-02-12T21:21:30.406Z,102640.71
2023-02-12T21:23:59.899Z,102641.15
2023-02-12T21:26:29.629Z,102640.12
2023-02-12T21:28:59.214Z,102649.45
2023-02-12T21:31:29.410Z,102649.59
2023-02-12T21:33:58.737Z,102649.69
2023-02-12T21:36:28.329Z,102653.70
2023-02-12T21:38:56.719Z,102656.02
2023-02-12T21:41:24.790Z,102654.61
2023-02-12T21:44:00.111Z,102654.53
2023-02-12T21:46:28.972Z,102657.40
2023-02-12T21:48:58.646Z,102658.61
2023-02-12T21:51:31.006Z,102668.18
2023-02-12T21:54:00.720Z,102667.30
2023-02-12T21:56:29.301Z,102664.85
2023-02-12T21:59:00.443Z,102666.85
2023-02-12T22:01:29.846Z,102672.60
2023-02-12T22:03:58.403Z,102670.39
2023-02-12T22:06:26.611Z,102671.95
2023-02-12T22:08:55.448Z,102674.06
2023-02-12T22:11:23.508Z,102671.77
2023-02-12T22:13:51.416Z,102676.95
2023-02-12T22:16:27.741Z,102681.45
2023-02-12T22:18:57.221Z,102687.91
2023-02-12T22:21:27.034Z,102692.73
2023-02-12T22:23:55.394Z,102689.59
2023-02-12T22:26:24.612Z,102687.69
2023-02-12T22:28:54.502Z,102687.63
2023-02-12T22:31:28.651Z,102685.96
2023-02-12T22:33:58.120Z,102687.52
2023-02-12T22:36:26.860Z,102682.63
2023-02-12T22:38:56.417Z,102682.27
2023-02-12T22:41:24.587Z,102685.46
2023-02-12T22:43:52.662Z,102684.30
2023-02-12T22:46:21.062Z,102693.19
2023-02-12T22:48:49.009Z,102692.73
2023-02-12T22:51:22.205Z,102687.07
2023-02-12T22:53:50.591Z,102687.39
2023-02-12T22:56:19.060Z,102690.52
2023-02-12T22:58:47.338Z,102686.11
2023-02-12T23:01:18.072Z,102689.20
2023-02-12T23:03:46.437Z,102687.64
2023-02-12T23:06:16.634Z,102693.75
2023-02-12T23:08:44.843Z,102699.98
2023-02-12T23:11:12.915Z,102699.20
2023-02-12T23:13:41.106Z,102695.39
2023-02-12T23:16:09.340Z,102694.02
2023-02-12T23:18:37.309Z,102692.34
2023-02-12T23:21:05.715Z,102698.40
2023-02-12T23:23:34.203Z,102698.07
2023-02-12T23:26:02.262Z,102693.88
2023-02-12T23:28:30.926Z,102694.59
2023-02-12T23:30:59.501Z,102701.36
2023-02-12T23:33:27.767Z,102706.17
2023-02-12T23:35:56.019Z,102708.28
2023-02-12T23:38:24.191Z,102704.58
2023-02-12T23:40:52.262Z,102707.54
2023-02-12T23:43:20.338Z,102713.13
2023-02-12T23:45:48.671Z,102716.88
2023-02-12T23:48:16.908Z,102715.43
2023-02-12T23:50:45.580Z,102715.25
2023-02-12T23:53:13.657Z,102716.15
2023-02-12T23:55:41.927Z,102714.70
2023-02-12T23:58:10.202Z,102710.60
